sensor_id;sensor_type;location;lat;lon;timestamp;P1;durP1;ratioP1;P2;durP2;ratioP2
26080;SDS011;13991;51.174;4.438;2022-09-29T00:01:03;13.37;;;3.77;;
26080;SDS011;13991;51.174;4.438;2022-09-29T00:03:30;11.03;;;3.80;;
26080;SDS011;13991;51.174;4.438;2022-09-29T00:05:56;13.93;;;3.67;;
26080;SDS011;13991;51.174;4.438;2022-09-29T00:08:25;9.10;;;3.77;;
26080;SDS011;13991;51.174;4.438;2022-09-29T00:10:52;13.60;;;4.00;;
26080;SDS011;13991;51.174;4.438;2022-09-29T00:13:21;12.30;;;4.60;;
26080;SDS011;13991;51.174;4.438;2022-09-29T00:15:57;11.90;;;4.27;;
26080;SDS011;13991;51.174;4.438;2022-09-29T00:18:30;10.57;;;3.20;;
26080;SDS011;13991;51.174;4.438;2022-09-29T00:21:04;9.20;;;3.90;;
26080;SDS011;13991;51.174;4.438;2022-09-29T00:23:35;14.50;;;4.07;;
26080;SDS011;13991;51.174;4.438;2022-09-29T00:26:03;9.00;;;4.27;;
26080;SDS011;13991;51.174;4.438;2022-09-29T00:28:37;17.97;;;5.87;;
26080;SDS011;13991;51.174;4.438;2022-09-29T00:31:06;19.00;;;4.40;;
26080;SDS011;13991;51.174;4.438;2022-09-29T00:33:36;14.90;;;5.00;;
26080;SDS011;13991;51.174;4.438;2022-09-29T00:36:04;8.27;;;4.27;;
26080;SDS011;13991;51.174;4.438;2022-09-29T00:38:32;11.47;;;5.10;;
26080;SDS011;13991;51.174;4.438;2022-09-29T00:40:58;12.30;;;5.03;;
26080;SDS011;13991;51.174;4.438;2022-09-29T00:43:46;12.70;;;4.90;;
26080;SDS011;13991;51.174;4.438;2022-09-29T00:52:02;15.67;;;6.20;;
26080;SDS011;13991;51.174;4.438;2022-09-29T00:54:40;10.23;;;4.60;;
26080;SDS011;13991;51.174;4.438;2022-09-29T00:57:18;19.43;;;4.90;;
26080;SDS011;13991;51.174;4.438;2022-09-29T01:02:49;17.17;;;5.73;;
26080;SDS011;13991;51.174;4.438;2022-09-29T01:05:22;19.73;;;4.97;;
26080;SDS011;13991;51.174;4.438;2022-09-29T01:07:52;15.63;;;4.50;;
26080;SDS011;13991;51.174;4.438;2022-09-29T01:10:22;10.00;;;4.53;;
26080;SDS011;13991;51.174;4.438;2022-09-29T01:12:47;9.13;;;4.30;;
26080;SDS011;13991;51.174;4.438;2022-09-29T01:15:15;13.13;;;5.10;;
26080;SDS011;13991;51.174;4.438;2022-09-29T01:17:43;14.27;;;4.60;;
26080;SDS011;13991;51.174;4.438;2022-09-29T01:20:12;11.10;;;4.47;;
26080;SDS011;13991;51.174;4.438;2022-09-29T01:36:16;14.90;;;4.60;;
26080;SDS011;13991;51.174;4.438;2022-09-29T01:41:54;9.80;;;4.50;;
26080;SDS011;13991;51.174;4.438;2022-09-29T01:44:42;13.17;;;4.93;;
26080;SDS011;13991;51.174;4.438;2022-09-29T01:47:15;10.10;;;4.50;;
26080;SDS011;13991;51.174;4.438;2022-09-29T01:50:02;13.30;;;4.73;;
26080;SDS011;13991;51.174;4.438;2022-09-29T01:52:33;19.27;;;4.70;;
26080;SDS011;13991;51.174;4.438;2022-09-29T01:55:16;9.90;;;4.23;;
26080;SDS011;13991;51.174;4.438;2022-09-29T01:57:46;8.50;;;4.60;;
26080;SDS011;13991;51.174;4.438;2022-09-29T02:00:18;14.20;;;5.63;;
26080;SDS011;13991;51.174;4.438;2022-09-29T02:05:49;11.90;;;4.90;;
26080;SDS011;13991;51.174;4.438;2022-09-29T02:11:00;10.00;;;4.53;;
26080;SDS011;13991;51.174;4.438;2022-09-29T02:13:29;12.67;;;4.83;;
26080;SDS011;13991;51.174;4.438;2022-09-29T02:15:59;8.40;;;4.47;;
26080;SDS011;13991;51.174;4.438;2022-09-29T02:18:28;8.57;;;5.03;;
26080;SDS011;13991;51.174;4.438;2022-09-29T02:20:58;14.97;;;5.33;;
26080;SDS011;13991;51.174;4.438;2022-09-29T02:23:26;7.67;;;4.67;;
26080;SDS011;13991;51.174;4.438;2022-09-29T02:25:55;18.30;;;5.50;;
26080;SDS011;13991;51.174;4.438;2022-09-29T02:28:24;12.87;;;5.07;;
26080;SDS011;13991;51.174;4.438;2022-09-29T02:30:50;13.07;;;4.70;;
26080;SDS011;13991;51.174;4.438;2022-09-29T02:33:21;15.93;;;5.13;;
26080;SDS011;13991;51.174;4.438;2022-09-29T02:38:40;12.87;;;4.77;;
26080;SDS011;13991;51.174;4.438;2022-09-29T02:41:21;10.57;;;4.93;;
26080;SDS011;13991;51.174;4.438;2022-09-29T02:46:49;17.00;;;5.60;;
26080;SDS011;13991;51.174;4.438;2022-09-29T02:52:15;11.30;;;5.67;;
26080;SDS011;13991;51.174;4.438;2022-09-29T02:54:54;14.33;;;5.40;;
26080;SDS011;13991;51.174;4.438;2022-09-29T02:57:58;18.40;;;6.07;;
26080;SDS011;13991;51.174;4.438;2022-09-29T03:00:26;23.77;;;5.70;;
26080;SDS011;13991;51.174;4.438;2022-09-29T03:02:52;10.73;;;5.20;;
26080;SDS011;13991;51.174;4.438;2022-09-29T03:05:19;11.33;;;5.73;;
26080;SDS011;13991;51.174;4.438;2022-09-29T03:07:46;23.80;;;6.10;;
26080;SDS011;13991;51.174;4.438;2022-09-29T03:10:13;15.23;;;6.13;;
26080;SDS011;13991;51.174;4.438;2022-09-29T03:12:40;17.00;;;5.47;;
26080;SDS011;13991;51.174;4.438;2022-09-29T03:15:06;16.10;;;6.37;;
26080;SDS011;13991;51.174;4.438;2022-09-29T03:17:33;19.17;;;5.73;;
26080;SDS011;13991;51.174;4.438;2022-09-29T03:19:58;20.77;;;6.47;;
26080;SDS011;13991;51.174;4.438;2022-09-29T03:22:24;15.83;;;6.97;;
26080;SDS011;13991;51.174;4.438;2022-09-29T03:24:50;15.97;;;6.27;;
26080;SDS011;13991;51.174;4.438;2022-09-29T03:27:16;20.17;;;6.90;;
26080;SDS011;13991;51.174;4.438;2022-09-29T03:29:42;11.87;;;5.70;;
26080;SDS011;13991;51.174;4.438;2022-09-29T03:32:08;17.73;;;6.63;;
26080;SDS011;13991;51.174;4.438;2022-09-29T03:34:34;20.87;;;6.40;;
26080;SDS011;13991;51.174;4.438;2022-09-29T03:36:59;13.77;;;6.57;;
26080;SDS011;13991;51.174;4.438;2022-09-29T03:39:25;11.27;;;5.83;;
26080;SDS011;13991;51.174;4.438;2022-09-29T03:41:51;19.17;;;6.20;;
26080;SDS011;13991;51.174;4.438;2022-09-29T03:44:17;17.60;;;6.17;;
26080;SDS011;13991;51.174;4.438;2022-09-29T03:46:43;13.47;;;5.57;;
26080;SDS011;13991;51.174;4.438;2022-09-29T03:49:10;13.57;;;5.97;;
26080;SDS011;13991;51.174;4.438;2022-09-29T03:51:37;21.17;;;6.17;;
26080;SDS011;13991;51.174;4.438;2022-09-29T03:54:03;15.70;;;6.57;;
26080;SDS011;13991;51.174;4.438;2022-09-29T03:56:29;13.47;;;5.83;;
26080;SDS011;13991;51.174;4.438;2022-09-29T03:58:55;11.87;;;5.43;;
26080;SDS011;13991;51.174;4.438;2022-09-29T04:01:21;13.10;;;5.67;;
26080;SDS011;13991;51.174;4.438;2022-09-29T04:03:47;15.70;;;5.77;;
26080;SDS011;13991;51.174;4.438;2022-09-29T04:06:13;14.10;;;6.20;;
26080;SDS011;13991;51.174;4.438;2022-09-29T04:08:38;23.13;;;6.83;;
26080;SDS011;13991;51.174;4.438;2022-09-29T04:11:04;16.70;;;6.03;;
26080;SDS011;13991;51.174;4.438;2022-09-29T04:13:30;14.93;;;5.73;;
26080;SDS011;13991;51.174;4.438;2022-09-29T04:16:00;17.40;;;5.87;;
26080;SDS011;13991;51.174;4.438;2022-09-29T04:18:27;13.90;;;6.33;;
26080;SDS011;13991;51.174;4.438;2022-09-29T04:20:54;9.87;;;5.80;;
26080;SDS011;13991;51.174;4.438;2022-09-29T04:23:24;17.53;;;6.70;;
26080;SDS011;13991;51.174;4.438;2022-09-29T04:25:57;17.40;;;6.27;;
26080;SDS011;13991;51.174;4.438;2022-09-29T04:28:24;15.67;;;5.53;;
26080;SDS011;13991;51.174;4.438;2022-09-29T04:30:50;9.97;;;5.93;;
26080;SDS011;13991;51.174;4.438;2022-09-29T04:33:16;13.50;;;6.20;;
26080;SDS011;13991;51.174;4.438;2022-09-29T04:35:42;14.17;;;6.17;;
26080;SDS011;13991;51.174;4.438;2022-09-29T04:38:08;13.67;;;6.53;;
26080;SDS011;13991;51.174;4.438;2022-09-29T04:40:34;21.70;;;6.43;;
26080;SDS011;13991;51.174;4.438;2022-09-29T04:43:00;12.53;;;6.33;;
26080;SDS011;13991;51.174;4.438;2022-09-29T04:45:28;17.80;;;5.73;;
26080;SDS011;13991;51.174;4.438;2022-09-29T04:47:53;15.00;;;7.00;;
26080;SDS011;13991;51.174;4.438;2022-09-29T04:50:19;20.27;;;5.80;;
26080;SDS011;13991;51.174;4.438;2022-09-29T04:52:45;10.53;;;5.53;;
26080;SDS011;13991;51.174;4.438;2022-09-29T04:55:11;20.40;;;6.20;;
26080;SDS011;13991;51.174;4.438;2022-09-29T04:57:38;20.10;;;6.27;;
26080;SDS011;13991;51.174;4.438;2022-09-29T05:00:05;14.57;;;6.53;;
26080;SDS011;13991;51.174;4.438;2022-09-29T05:02:32;18.90;;;6.73;;
26080;SDS011;13991;51.174;4.438;2022-09-29T05:04:59;14.77;;;6.63;;
26080;SDS011;13991;51.174;4.438;2022-09-29T05:07:25;17.60;;;6.83;;
26080;SDS011;13991;51.174;4.438;2022-09-29T05:09:52;15.70;;;6.47;;
26080;SDS011;13991;51.174;4.438;2022-09-29T05:12:18;15.53;;;6.80;;
26080;SDS011;13991;51.174;4.438;2022-09-29T05:14:45;19.90;;;6.93;;
26080;SDS011;13991;51.174;4.438;2022-09-29T05:17:11;13.37;;;6.37;;
26080;SDS011;13991;51.174;4.438;2022-09-29T05:19:38;13.60;;;6.20;;
26080;SDS011;13991;51.174;4.438;2022-09-29T05:22:04;11.53;;;6.00;;
26080;SDS011;13991;51.174;4.438;2022-09-29T05:24:30;13.73;;;6.50;;
26080;SDS011;13991;51.174;4.438;2022-09-29T05:26:56;16.10;;;6.10;;
26080;SDS011;13991;51.174;4.438;2022-09-29T05:29:22;15.77;;;6.70;;
26080;SDS011;13991;51.174;4.438;2022-09-29T05:31:48;14.07;;;6.50;;
26080;SDS011;13991;51.174;4.438;2022-09-29T05:34:15;25.03;;;7.20;;
26080;SDS011;13991;51.174;4.438;2022-09-29T05:36:41;25.07;;;6.77;;
26080;SDS011;13991;51.174;4.438;2022-09-29T05:39:06;15.03;;;6.20;;
26080;SDS011;13991;51.174;4.438;2022-09-29T05:41:32;18.47;;;6.53;;
26080;SDS011;13991;51.174;4.438;2022-09-29T05:43:59;14.40;;;6.20;;
26080;SDS011;13991;51.174;4.438;2022-09-29T05:46:25;12.87;;;5.87;;
26080;SDS011;13991;51.174;4.438;2022-09-29T05:48:51;13.90;;;6.30;;
26080;SDS011;13991;51.174;4.438;2022-09-29T05:51:19;14.67;;;5.97;;
26080;SDS011;13991;51.174;4.438;2022-09-29T05:53:47;22.83;;;6.27;;
26080;SDS011;13991;51.174;4.438;2022-09-29T05:56:14;18.93;;;6.77;;
26080;SDS011;13991;51.174;4.438;2022-09-29T05:58:43;14.13;;;6.83;;
26080;SDS011;13991;51.174;4.438;2022-09-29T06:01:16;21.47;;;7.00;;
26080;SDS011;13991;51.174;4.438;2022-09-29T06:03:46;12.80;;;6.60;;
26080;SDS011;13991;51.174;4.438;2022-09-29T06:06:20;22.50;;;6.83;;
26080;SDS011;13991;51.174;4.438;2022-09-29T06:08:48;15.27;;;6.93;;
26080;SDS011;13991;51.174;4.438;2022-09-29T06:11:22;20.57;;;7.37;;
26080;SDS011;13991;51.174;4.438;2022-09-29T06:14:00;20.00;;;6.83;;
26080;SDS011;13991;51.174;4.438;2022-09-29T06:16:34;21.77;;;7.53;;
26080;SDS011;13991;51.174;4.438;2022-09-29T06:19:04;20.73;;;7.50;;
26080;SDS011;13991;51.174;4.438;2022-09-29T06:21:41;22.03;;;7.73;;
26080;SDS011;13991;51.174;4.438;2022-09-29T06:24:13;48.17;;;15.57;;
26080;SDS011;13991;51.174;4.438;2022-09-29T06:26:42;22.80;;;10.23;;
26080;SDS011;13991;51.174;4.438;2022-09-29T06:29:08;30.90;;;10.73;;
26080;SDS011;13991;51.174;4.438;2022-09-29T06:31:34;23.60;;;8.23;;
26080;SDS011;13991;51.174;4.438;2022-09-29T06:34:00;21.87;;;8.50;;
26080;SDS011;13991;51.174;4.438;2022-09-29T06:36:30;21.90;;;7.90;;
26080;SDS011;13991;51.174;4.438;2022-09-29T06:39:25;18.07;;;7.23;;
26080;SDS011;13991;51.174;4.438;2022-09-29T06:42:11;22.27;;;7.13;;
26080;SDS011;13991;51.174;4.438;2022-09-29T06:44:37;23.13;;;7.40;;
26080;SDS011;13991;51.174;4.438;2022-09-29T06:47:02;13.80;;;7.20;;
26080;SDS011;13991;51.174;4.438;2022-09-29T06:49:28;19.53;;;7.30;;
26080;SDS011;13991;51.174;4.438;2022-09-29T06:51:53;32.87;;;7.77;;
26080;SDS011;13991;51.174;4.438;2022-09-29T06:54:20;24.27;;;7.00;;
26080;SDS011;13991;51.174;4.438;2022-09-29T06:56:49;17.90;;;7.63;;
26080;SDS011;13991;51.174;4.438;2022-09-29T06:59:16;21.80;;;7.90;;
26080;SDS011;13991;51.174;4.438;2022-09-29T07:01:41;21.30;;;7.90;;
26080;SDS011;13991;51.174;4.438;2022-09-29T07:04:07;26.00;;;8.27;;
26080;SDS011;13991;51.174;4.438;2022-09-29T07:06:33;23.93;;;8.00;;
26080;SDS011;13991;51.174;4.438;2022-09-29T07:08:59;34.93;;;9.13;;
26080;SDS011;13991;51.174;4.438;2022-09-29T07:11:25;20.47;;;8.10;;
26080;SDS011;13991;51.174;4.438;2022-09-29T07:13:51;24.20;;;8.10;;
26080;SDS011;13991;51.174;4.438;2022-09-29T07:16:17;29.10;;;9.13;;
26080;SDS011;13991;51.174;4.438;2022-09-29T07:18:43;27.37;;;10.37;;
26080;SDS011;13991;51.174;4.438;2022-09-29T07:21:12;18.77;;;8.50;;
26080;SDS011;13991;51.174;4.438;2022-09-29T07:23:45;19.87;;;8.33;;
26080;SDS011;13991;51.174;4.438;2022-09-29T07:30:07;20.03;;;8.83;;
26080;SDS011;13991;51.174;4.438;2022-09-29T07:36:00;21.17;;;10.20;;
26080;SDS011;13991;51.174;4.438;2022-09-29T07:41:48;39.40;;;14.33;;
26080;SDS011;13991;51.174;4.438;2022-09-29T07:44:23;53.30;;;15.18;;
26080;SDS011;13991;51.174;4.438;2022-09-29T07:46:51;35.20;;;11.53;;
26080;SDS011;13991;51.174;4.438;2022-09-29T07:49:30;31.90;;;9.53;;
26080;SDS011;13991;51.174;4.438;2022-09-29T07:51:58;26.57;;;10.00;;
26080;SDS011;13991;51.174;4.438;2022-09-29T07:54:24;27.33;;;9.50;;
26080;SDS011;13991;51.174;4.438;2022-09-29T07:57:00;29.37;;;9.93;;
26080;SDS011;13991;51.174;4.438;2022-09-29T07:59:28;27.07;;;9.23;;
26080;SDS011;13991;51.174;4.438;2022-09-29T08:01:59;20.37;;;9.10;;
26080;SDS011;13991;51.174;4.438;2022-09-29T08:11:12;28.07;;;11.63;;
26080;SDS011;13991;51.174;4.438;2022-09-29T08:13:41;16.90;;;8.93;;
26080;SDS011;13991;51.174;4.438;2022-09-29T08:16:13;24.00;;;9.97;;
26080;SDS011;13991;51.174;4.438;2022-09-29T08:18:39;22.87;;;9.20;;
26080;SDS011;13991;51.174;4.438;2022-09-29T08:21:06;36.67;;;10.17;;
26080;SDS011;13991;51.174;4.438;2022-09-29T08:23:38;30.43;;;9.47;;
26080;SDS011;13991;51.174;4.438;2022-09-29T08:26:21;22.87;;;10.83;;
26080;SDS011;13991;51.174;4.438;2022-09-29T08:28:50;25.90;;;8.93;;
26080;SDS011;13991;51.174;4.438;2022-09-29T08:31:34;26.93;;;9.77;;
26080;SDS011;13991;51.174;4.438;2022-09-29T08:34:16;18.90;;;8.50;;
26080;SDS011;13991;51.174;4.438;2022-09-29T08:39:43;23.33;;;9.23;;
26080;SDS011;13991;51.174;4.438;2022-09-29T08:51:31;16.30;;;6.80;;
26080;SDS011;13991;51.174;4.438;2022-09-29T09:08:12;13.27;;;5.97;;
26080;SDS011;13991;51.174;4.438;2022-09-29T09:27:08;8.60;;;4.67;;
26080;SDS011;13991;51.174;4.438;2022-09-29T09:30:23;11.53;;;4.07;;
26080;SDS011;13991;51.174;4.438;2022-09-29T09:36:46;19.03;;;6.07;;
26080;SDS011;13991;51.174;4.438;2022-09-29T09:46:01;12.77;;;3.90;;
26080;SDS011;13991;51.174;4.438;2022-09-29T09:48:42;23.43;;;8.77;;
26080;SDS011;13991;51.174;4.438;2022-09-29T10:03:51;15.67;;;4.70;;
26080;SDS011;13991;51.174;4.438;2022-09-29T10:06:17;7.83;;;3.23;;
26080;SDS011;13991;51.174;4.438;2022-09-29T10:09:26;13.87;;;3.60;;
26080;SDS011;13991;51.174;4.438;2022-09-29T10:11:44;11.93;;;3.70;;
26080;SDS011;13991;51.174;4.438;2022-09-29T10:17:04;15.83;;;2.90;;
26080;SDS011;13991;51.174;4.438;2022-09-29T10:22:37;9.07;;;2.97;;
26080;SDS011;13991;51.174;4.438;2022-09-29T10:25:14;45.30;;;14.57;;
26080;SDS011;13991;51.174;4.438;2022-09-29T10:27:44;28.03;;;9.67;;
26080;SDS011;13991;51.174;4.438;2022-09-29T10:33:01;13.87;;;2.87;;
26080;SDS011;13991;51.174;4.438;2022-09-29T10:35:37;10.27;;;2.97;;
26080;SDS011;13991;51.174;4.438;2022-09-29T10:38:05;6.23;;;1.23;;
26080;SDS011;13991;51.174;4.438;2022-09-29T10:41:08;17.87;;;4.00;;
26080;SDS011;13991;51.174;4.438;2022-09-29T10:43:41;11.40;;;2.20;;
26080;SDS011;13991;51.174;4.438;2022-09-29T10:49:16;11.13;;;1.80;;
26080;SDS011;13991;51.174;4.438;2022-09-29T10:51:55;2.50;;;1.17;;
26080;SDS011;13991;51.174;4.438;2022-09-29T10:54:22;4.53;;;1.10;;
26080;SDS011;13991;51.174;4.438;2022-09-29T10:56:50;4.57;;;1.47;;
26080;SDS011;13991;51.174;4.438;2022-09-29T10:59:17;11.70;;;1.80;;
26080;SDS011;13991;51.174;4.438;2022-09-29T11:02:04;2.97;;;0.93;;
26080;SDS011;13991;51.174;4.438;2022-09-29T11:04:32;4.50;;;0.83;;
26080;SDS011;13991;51.174;4.438;2022-09-29T11:07:08;7.73;;;1.00;;
26080;SDS011;13991;51.174;4.438;2022-09-29T11:09:37;9.77;;;0.90;;
26080;SDS011;13991;51.174;4.438;2022-09-29T11:12:04;8.80;;;1.60;;
26080;SDS011;13991;51.174;4.438;2022-09-29T11:14:59;7.00;;;1.17;;
26080;SDS011;13991;51.174;4.438;2022-09-29T11:17:48;10.93;;;1.00;;
26080;SDS011;13991;51.174;4.438;2022-09-29T11:20:15;4.90;;;0.90;;
26080;SDS011;13991;51.174;4.438;2022-09-29T11:36:02;8.10;;;0.80;;
26080;SDS011;13991;51.174;4.438;2022-09-29T11:38:52;12.17;;;1.33;;
26080;SDS011;13991;51.174;4.438;2022-09-29T11:41:40;6.57;;;1.93;;
26080;SDS011;13991;51.174;4.438;2022-09-29T11:54:39;11.87;;;0.90;;
26080;SDS011;13991;51.174;4.438;2022-09-29T11:57:31;13.00;;;1.30;;
26080;SDS011;13991;51.174;4.438;2022-09-29T12:00:05;7.50;;;0.87;;
26080;SDS011;13991;51.174;4.438;2022-09-29T12:08:06;6.30;;;0.80;;
26080;SDS011;13991;51.174;4.438;2022-09-29T12:10:57;8.43;;;0.90;;
26080;SDS011;13991;51.174;4.438;2022-09-29T12:16:23;2.10;;;0.50;;
26080;SDS011;13991;51.174;4.438;2022-09-29T12:18:59;5.10;;;0.60;;
26080;SDS011;13991;51.174;4.438;2022-09-29T12:21:32;4.90;;;0.83;;
26080;SDS011;13991;51.174;4.438;2022-09-29T12:24:02;4.97;;;0.83;;
26080;SDS011;13991;51.174;4.438;2022-09-29T12:26:30;4.77;;;0.57;;
26080;SDS011;13991;51.174;4.438;2022-09-29T12:28:59;8.03;;;0.93;;
26080;SDS011;13991;51.174;4.438;2022-09-29T12:31:34;6.43;;;1.13;;
26080;SDS011;13991;51.174;4.438;2022-09-29T12:34:14;6.63;;;1.20;;
26080;SDS011;13991;51.174;4.438;2022-09-29T12:39:42;6.07;;;1.13;;
26080;SDS011;13991;51.174;4.438;2022-09-29T12:45:09;9.50;;;2.13;;
26080;SDS011;13991;51.174;4.438;2022-09-29T13:11:10;5.90;;;1.00;;
26080;SDS011;13991;51.174;4.438;2022-09-29T13:16:49;6.37;;;0.70;;
26080;SDS011;13991;51.174;4.438;2022-09-29T13:27:43;9.73;;;0.90;;
26080;SDS011;13991;51.174;4.438;2022-09-29T13:32:42;3.07;;;0.60;;
26080;SDS011;13991;51.174;4.438;2022-09-29T13:35:16;4.00;;;0.80;;
26080;SDS011;13991;51.174;4.438;2022-09-29T13:37:48;1.20;;;0.50;;
26080;SDS011;13991;51.174;4.438;2022-09-29T13:40:27;7.00;;;0.70;;
26080;SDS011;13991;51.174;4.438;2022-09-29T13:42:58;2.10;;;0.63;;
26080;SDS011;13991;51.174;4.438;2022-09-29T13:47:57;5.13;;;0.40;;
26080;SDS011;13991;51.174;4.438;2022-09-29T13:50:45;8.73;;;0.70;;
26080;SDS011;13991;51.174;4.438;2022-09-29T13:55:54;8.87;;;0.70;;
26080;SDS011;13991;51.174;4.438;2022-09-29T14:00:53;6.87;;;0.87;;
26080;SDS011;13991;51.174;4.438;2022-09-29T14:03:43;3.00;;;0.80;;
26080;SDS011;13991;51.174;4.438;2022-09-29T14:06:13;4.00;;;0.93;;
26080;SDS011;13991;51.174;4.438;2022-09-29T14:14:07;4.90;;;1.00;;
26080;SDS011;13991;51.174;4.438;2022-09-29T14:19:31;8.93;;;1.00;;
26080;SDS011;13991;51.174;4.438;2022-09-29T14:38:04;8.03;;;0.67;;
26080;SDS011;13991;51.174;4.438;2022-09-29T14:40:32;7.97;;;0.80;;
26080;SDS011;13991;51.174;4.438;2022-09-29T14:43:12;14.60;;;0.50;;
26080;SDS011;13991;51.174;4.438;2022-09-29T14:45:44;3.17;;;0.60;;
26080;SDS011;13991;51.174;4.438;2022-09-29T15:00:21;2.97;;;0.63;;
26080;SDS011;13991;51.174;4.438;2022-09-29T15:02:55;4.13;;;0.77;;
26080;SDS011;13991;51.174;4.438;2022-09-29T20:01:55;18.37;;;6.43;;
26080;SDS011;13991;51.174;4.438;2022-09-29T20:04:23;14.80;;;5.90;;
26080;SDS011;13991;51.174;4.438;2022-09-29T20:06:51;14.20;;;6.03;;
26080;SDS011;13991;51.174;4.438;2022-09-29T20:09:17;21.60;;;6.70;;
26080;SDS011;13991;51.174;4.438;2022-09-29T20:11:43;17.77;;;6.13;;
26080;SDS011;13991;51.174;4.438;2022-09-29T20:14:14;16.10;;;5.77;;
26080;SDS011;13991;51.174;4.438;2022-09-29T20:16:41;20.17;;;6.60;;
26080;SDS011;13991;51.174;4.438;2022-09-29T20:19:10;12.47;;;5.70;;
26080;SDS011;13991;51.174;4.438;2022-09-29T20:21:40;14.50;;;5.90;;
26080;SDS011;13991;51.174;4.438;2022-09-29T20:24:07;19.00;;;6.63;;
26080;SDS011;13991;51.174;4.438;2022-09-29T20:26:38;20.53;;;8.40;;
26080;SDS011;13991;51.174;4.438;2022-09-29T20:29:05;40.27;;;14.63;;
26080;SDS011;13991;51.174;4.438;2022-09-29T20:31:31;35.57;;;13.33;;
26080;SDS011;13991;51.174;4.438;2022-09-29T20:34:00;52.80;;;15.30;;
26080;SDS011;13991;51.174;4.438;2022-09-29T20:36:26;36.27;;;13.17;;
26080;SDS011;13991;51.174;4.438;2022-09-29T20:38:51;30.00;;;11.27;;
26080;SDS011;13991;51.174;4.438;2022-09-29T20:41:17;40.10;;;11.93;;
26080;SDS011;13991;51.174;4.438;2022-09-29T20:43:46;30.10;;;11.60;;
26080;SDS011;13991;51.174;4.438;2022-09-29T20:46:15;31.63;;;12.77;;
26080;SDS011;13991;51.174;4.438;2022-09-29T20:48:41;31.40;;;12.33;;
26080;SDS011;13991;51.174;4.438;2022-09-29T20:51:09;32.27;;;12.70;;
26080;SDS011;13991;51.174;4.438;2022-09-29T20:53:39;44.03;;;13.60;;
26080;SDS011;13991;51.174;4.438;2022-09-29T20:56:07;26.90;;;11.63;;
26080;SDS011;13991;51.174;4.438;2022-09-29T20:58:35;35.63;;;13.63;;
26080;SDS011;13991;51.174;4.438;2022-09-29T21:01:21;39.43;;;14.43;;
26080;SDS011;13991;51.174;4.438;2022-09-29T21:03:53;30.53;;;12.07;;
26080;SDS011;13991;51.174;4.438;2022-09-29T21:06:27;29.53;;;10.97;;
26080;SDS011;13991;51.174;4.438;2022-09-29T21:08:54;28.57;;;11.80;;
26080;SDS011;13991;51.174;4.438;2022-09-29T21:11:21;25.47;;;10.10;;
26080;SDS011;13991;51.174;4.438;2022-09-29T21:13:48;14.47;;;7.10;;
26080;SDS011;13991;51.174;4.438;2022-09-29T21:16:15;25.60;;;8.87;;
26080;SDS011;13991;51.174;4.438;2022-09-29T21:18:41;15.80;;;7.90;;
26080;SDS011;13991;51.174;4.438;2022-09-29T21:21:07;21.83;;;9.23;;
26080;SDS011;13991;51.174;4.438;2022-09-29T21:23:33;22.47;;;9.27;;
26080;SDS011;13991;51.174;4.438;2022-09-29T21:26:04;16.53;;;7.80;;
26080;SDS011;13991;51.174;4.438;2022-09-29T21:28:31;22.37;;;10.30;;
26080;SDS011;13991;51.174;4.438;2022-09-29T21:33:27;28.00;;;12.37;;
26080;SDS011;13991;51.174;4.438;2022-09-29T21:35:57;23.50;;;8.83;;
26080;SDS011;13991;51.174;4.438;2022-09-29T21:38:25;16.40;;;8.07;;
26080;SDS011;13991;51.174;4.438;2022-09-29T21:41:07;18.90;;;7.53;;
26080;SDS011;13991;51.174;4.438;2022-09-29T21:43:56;18.70;;;7.93;;
26080;SDS011;13991;51.174;4.438;2022-09-29T21:46:25;17.63;;;7.67;;
26080;SDS011;13991;51.174;4.438;2022-09-29T21:48:56;19.60;;;8.23;;
26080;SDS011;13991;51.174;4.438;2022-09-29T21:51:27;17.77;;;7.97;;
26080;SDS011;13991;51.174;4.438;2022-09-29T21:53:55;15.90;;;7.67;;
26080;SDS011;13991;51.174;4.438;2022-09-29T21:56:23;19.10;;;7.13;;
26080;SDS011;13991;51.174;4.438;2022-09-29T21:58:52;24.53;;;7.33;;
26080;SDS011;13991;51.174;4.438;2022-09-29T22:01:20;18.83;;;6.33;;
26080;SDS011;13991;51.174;4.438;2022-09-29T22:03:48;27.93;;;7.73;;
26080;SDS011;13991;51.174;4.438;2022-09-29T22:06:18;25.00;;;7.60;;
26080;SDS011;13991;51.174;4.438;2022-09-29T22:08:49;19.37;;;7.20;;
26080;SDS011;13991;51.174;4.438;2022-09-29T22:11:16;17.50;;;7.90;;
26080;SDS011;13991;51.174;4.438;2022-09-29T22:13:48;15.90;;;7.43;;
26080;SDS011;13991;51.174;4.438;2022-09-29T22:16:14;25.40;;;7.47;;
26080;SDS011;13991;51.174;4.438;2022-09-29T22:18:42;23.30;;;7.93;;
26080;SDS011;13991;51.174;4.438;2022-09-29T22:21:09;17.07;;;8.10;;
26080;SDS011;13991;51.174;4.438;2022-09-29T22:23:37;20.97;;;8.50;;
26080;SDS011;13991;51.174;4.438;2022-09-29T22:26:03;21.53;;;8.73;;
26080;SDS011;13991;51.174;4.438;2022-09-29T22:28:29;17.17;;;8.57;;
26080;SDS011;13991;51.174;4.438;2022-09-29T22:31:01;18.73;;;8.17;;
26080;SDS011;13991;51.174;4.438;2022-09-29T22:33:32;19.87;;;8.07;;
26080;SDS011;13991;51.174;4.438;2022-09-29T22:35:59;20.17;;;7.30;;
26080;SDS011;13991;51.174;4.438;2022-09-29T22:38:26;17.63;;;7.93;;
26080;SDS011;13991;51.174;4.438;2022-09-29T22:40:51;17.90;;;8.30;;
26080;SDS011;13991;51.174;4.438;2022-09-29T22:43:17;29.10;;;9.53;;
26080;SDS011;13991;51.174;4.438;2022-09-29T22:45:47;21.70;;;8.67;;
26080;SDS011;13991;51.174;4.438;2022-09-29T22:48:14;21.00;;;8.30;;
26080;SDS011;13991;51.174;4.438;2022-09-29T22:50:44;20.37;;;7.53;;
26080;SDS011;13991;51.174;4.438;2022-09-29T22:53:11;24.70;;;9.07;;
26080;SDS011;13991;51.174;4.438;2022-09-29T22:55:38;22.17;;;7.97;;
26080;SDS011;13991;51.174;4.438;2022-09-29T22:58:09;24.67;;;8.53;;
26080;SDS011;13991;51.174;4.438;2022-09-29T23:00:36;15.63;;;8.13;;
26080;SDS011;13991;51.174;4.438;2022-09-29T23:03:03;20.10;;;7.83;;
26080;SDS011;13991;51.174;4.438;2022-09-29T23:05:30;18.17;;;8.03;;
26080;SDS011;13991;51.174;4.438;2022-09-29T23:07:56;24.33;;;7.33;;
26080;SDS011;13991;51.174;4.438;2022-09-29T23:10:22;16.57;;;7.07;;
26080;SDS011;13991;51.174;4.438;2022-09-29T23:12:48;23.97;;;8.07;;
26080;SDS011;13991;51.174;4.438;2022-09-29T23:15:14;16.53;;;7.43;;
26080;SDS011;13991;51.174;4.438;2022-09-29T23:17:39;18.93;;;7.37;;
26080;SDS011;13991;51.174;4.438;2022-09-29T23:20:06;15.70;;;7.57;;
26080;SDS011;13991;51.174;4.438;2022-09-29T23:22:32;19.53;;;7.23;;
26080;SDS011;13991;51.174;4.438;2022-09-29T23:24:58;19.23;;;6.97;;
26080;SDS011;13991;51.174;4.438;2022-09-29T23:27:23;14.30;;;7.07;;
26080;SDS011;13991;51.174;4.438;2022-09-29T23:29:49;16.87;;;6.83;;
26080;SDS011;13991;51.174;4.438;2022-09-29T23:32:16;19.40;;;6.70;;
26080;SDS011;13991;51.174;4.438;2022-09-29T23:34:43;12.80;;;6.80;;
26080;SDS011;13991;51.174;4.438;2022-09-29T23:37:09;16.80;;;6.27;;
26080;SDS011;13991;51.174;4.438;2022-09-29T23:39:34;12.47;;;6.57;;
26080;SDS011;13991;51.174;4.438;2022-09-29T23:42:00;14.17;;;6.10;;
26080;SDS011;13991;51.174;4.438;2022-09-29T23:44:27;16.27;;;5.80;;
26080;SDS011;13991;51.174;4.438;2022-09-29T23:46:54;14.43;;;6.13;;
26080;SDS011;13991;51.174;4.438;2022-09-29T23:49:21;16.97;;;7.03;;
26080;SDS011;13991;51.174;4.438;2022-09-29T23:51:51;12.13;;;5.70;;
26080;SDS011;13991;51.174;4.438;2022-09-29T23:54:19;12.03;;;6.00;;
26080;SDS011;13991;51.174;4.438;2022-09-29T23:56:47;12.63;;;6.00;;
26080;SDS011;13991;51.174;4.438;2022-09-29T23:59:14;17.43;;;6.30;;
